Terminal Aerodrome Forecast
Issued by NWS

Home | Current Version | Previous Version | Text Only | Print | Product List | Glossary On
Versions: 1 2 3 4 5 6 7 8 9 10 11 12 13 14 15 16 17 18
000
FTUS43 KILX 241700
TAFBMI
TAF
KBMI 241726Z 2418/2518 04015KT P6SM SCT035
     FM250000 07007KT P6SM SKC
     FM251000 17008KT P6SM BKN080
     FM251600 18010KT P6SM SCT045 BKN080=

USA.gov is the U.S. government's official web portal to all federal, state and local government web resources and services.